Lewisville, Idaho
Current Conditions -  °F | °C
As of 5:59 PM on Friday 19 Dec 2014 (Local Time) from KIDA Reporting Station
Light Snow Light Snow  
Wind Chill: 26°   Ceiling: 1000
Heat Index: 35°   Visibility: 5mi
Dew Point: 32°   Wind: 15mph
Humidity: 89%   Direction: 200°SSW
Pressure: 30.06"   Gusts: NA
Location:  43.7°N, 112.01°W
Report Text: KIDA 200059Z 20013KT 5SM -SN BR BKN010 BKN019 OVC049 02/00 A3006 RMK AO2 P0000 T00170000
Loading
Personal Weather Stations






























Interactive Weather Map New forecast layout! Learn more

10-Day Weather Forecast

Advertisements
Track Severe Weather on mobile